sensor_id;sensor_type;location;lat;lon;timestamp;P1;durP1;ratioP1;P2;durP2;ratioP2
59974;SDS011;62136;-35.664;-63.766;2023-10-13T00:02:00;2.42;;;1.65;;
59974;SDS011;62136;-35.664;-63.766;2023-10-13T00:04:31;4.07;;;1.77;;
59974;SDS011;62136;-35.664;-63.766;2023-10-13T00:07:01;3.38;;;1.67;;
59974;SDS011;62136;-35.664;-63.766;2023-10-13T00:09:30;3.05;;;1.70;;
59974;SDS011;62136;-35.664;-63.766;2023-10-13T00:12:05;1.95;;;1.80;;
59974;SDS011;62136;-35.664;-63.766;2023-10-13T00:14:35;2.20;;;1.80;;
59974;SDS011;62136;-35.664;-63.766;2023-10-13T00:17:07;2.72;;;1.85;;
59974;SDS011;62136;-35.664;-63.766;2023-10-13T00:19:41;4.43;;;1.95;;
59974;SDS011;62136;-35.664;-63.766;2023-10-13T00:22:12;3.55;;;2.00;;
59974;SDS011;62136;-35.664;-63.766;2023-10-13T00:24:48;2.35;;;1.70;;
59974;SDS011;62136;-35.664;-63.766;2023-10-13T00:27:20;2.65;;;1.70;;
59974;SDS011;62136;-35.664;-63.766;2023-10-13T00:29:56;5.75;;;2.20;;
59974;SDS011;62136;-35.664;-63.766;2023-10-13T00:32:46;1.60;;;1.50;;
59974;SDS011;62136;-35.664;-63.766;2023-10-13T00:35:21;2.85;;;1.70;;
59974;SDS011;62136;-35.664;-63.766;2023-10-13T00:38:00;2.17;;;1.73;;
59974;SDS011;62136;-35.664;-63.766;2023-10-13T00:40:43;2.30;;;1.85;;
59974;SDS011;62136;-35.664;-63.766;2023-10-13T00:43:20;2.65;;;2.10;;
59974;SDS011;62136;-35.664;-63.766;2023-10-13T00:45:50;2.30;;;1.98;;
59974;SDS011;62136;-35.664;-63.766;2023-10-13T00:48:22;3.30;;;1.67;;
59974;SDS011;62136;-35.664;-63.766;2023-10-13T00:51:06;3.50;;;2.00;;
59974;SDS011;62136;-35.664;-63.766;2023-10-13T00:53:34;4.78;;;1.70;;
59974;SDS011;62136;-35.664;-63.766;2023-10-13T00:56:07;3.33;;;1.90;;
59974;SDS011;62136;-35.664;-63.766;2023-10-13T00:58:53;1.80;;;1.50;;
59974;SDS011;62136;-35.664;-63.766;2023-10-13T01:01:23;3.75;;;1.90;;
59974;SDS011;62136;-35.664;-63.766;2023-10-13T01:03:58;3.25;;;1.85;;
59974;SDS011;62136;-35.664;-63.766;2023-10-13T01:06:29;2.05;;;1.48;;
59974;SDS011;62136;-35.664;-63.766;2023-10-13T01:09:03;2.50;;;1.77;;
59974;SDS011;62136;-35.664;-63.766;2023-10-13T01:11:44;3.95;;;1.92;;
59974;SDS011;62136;-35.664;-63.766;2023-10-13T01:16:47;2.75;;;1.60;;
59974;SDS011;62136;-35.664;-63.766;2023-10-13T01:19:18;1.90;;;1.70;;
59974;SDS011;62136;-35.664;-63.766;2023-10-13T01:21:50;3.83;;;1.73;;
59974;SDS011;62136;-35.664;-63.766;2023-10-13T01:24:27;2.65;;;2.05;;
59974;SDS011;62136;-35.664;-63.766;2023-10-13T01:27:00;3.08;;;1.95;;
59974;SDS011;62136;-35.664;-63.766;2023-10-13T01:29:43;2.80;;;1.92;;
59974;SDS011;62136;-35.664;-63.766;2023-10-13T01:32:16;3.50;;;2.38;;
59974;SDS011;62136;-35.664;-63.766;2023-10-13T01:34:47;2.08;;;1.70;;
59974;SDS011;62136;-35.664;-63.766;2023-10-13T01:37:15;2.75;;;1.80;;
59974;SDS011;62136;-35.664;-63.766;2023-10-13T01:39:44;2.80;;;1.70;;
59974;SDS011;62136;-35.664;-63.766;2023-10-13T01:42:15;2.95;;;2.17;;
59974;SDS011;62136;-35.664;-63.766;2023-10-13T01:44:47;3.40;;;1.73;;
59974;SDS011;62136;-35.664;-63.766;2023-10-13T01:47:14;1.95;;;1.77;;
59974;SDS011;62136;-35.664;-63.766;2023-10-13T01:49:42;2.95;;;1.92;;
59974;SDS011;62136;-35.664;-63.766;2023-10-13T01:52:18;2.20;;;1.55;;
59974;SDS011;62136;-35.664;-63.766;2023-10-13T01:54:45;3.75;;;1.83;;
59974;SDS011;62136;-35.664;-63.766;2023-10-13T01:57:14;3.38;;;1.85;;
59974;SDS011;62136;-35.664;-63.766;2023-10-13T01:59:45;1.95;;;1.65;;
59974;SDS011;62136;-35.664;-63.766;2023-10-13T02:02:14;2.78;;;1.75;;
59974;SDS011;62136;-35.664;-63.766;2023-10-13T02:04:45;2.85;;;1.70;;
59974;SDS011;62136;-35.664;-63.766;2023-10-13T02:07:21;2.65;;;1.90;;
59974;SDS011;62136;-35.664;-63.766;2023-10-13T02:09:58;2.97;;;1.75;;
59974;SDS011;62136;-35.664;-63.766;2023-10-13T02:12:25;3.33;;;1.60;;
59974;SDS011;62136;-35.664;-63.766;2023-10-13T02:15:02;3.22;;;1.73;;
59974;SDS011;62136;-35.664;-63.766;2023-10-13T02:17:30;2.47;;;1.63;;
59974;SDS011;62136;-35.664;-63.766;2023-10-13T02:20:07;3.85;;;1.73;;
59974;SDS011;62136;-35.664;-63.766;2023-10-13T02:22:40;2.45;;;1.70;;
59974;SDS011;62136;-35.664;-63.766;2023-10-13T02:25:17;3.70;;;1.80;;
59974;SDS011;62136;-35.664;-63.766;2023-10-13T02:28:02;2.72;;;1.92;;
59974;SDS011;62136;-35.664;-63.766;2023-10-13T02:30:39;3.25;;;1.77;;
59974;SDS011;62136;-35.664;-63.766;2023-10-13T02:33:13;3.05;;;1.88;;
59974;SDS011;62136;-35.664;-63.766;2023-10-13T02:35:46;3.35;;;1.80;;
59974;SDS011;62136;-35.664;-63.766;2023-10-13T02:38:23;3.35;;;1.70;;
59974;SDS011;62136;-35.664;-63.766;2023-10-13T02:41:18;2.05;;;1.50;;
59974;SDS011;62136;-35.664;-63.766;2023-10-13T02:43:53;3.58;;;2.35;;
59974;SDS011;62136;-35.664;-63.766;2023-10-13T02:46:21;1.80;;;1.50;;
59974;SDS011;62136;-35.664;-63.766;2023-10-13T02:48:49;3.35;;;1.80;;
59974;SDS011;62136;-35.664;-63.766;2023-10-13T02:51:20;2.83;;;1.58;;
59974;SDS011;62136;-35.664;-63.766;2023-10-13T02:54:03;2.60;;;1.60;;
59974;SDS011;62136;-35.664;-63.766;2023-10-13T02:56:50;3.00;;;1.75;;
59974;SDS011;62136;-35.664;-63.766;2023-10-13T02:59:24;3.92;;;1.60;;
59974;SDS011;62136;-35.664;-63.766;2023-10-13T03:02:10;5.53;;;1.80;;
59974;SDS011;62136;-35.664;-63.766;2023-10-13T03:05:04;2.67;;;1.63;;
59974;SDS011;62136;-35.664;-63.766;2023-10-13T03:07:37;3.03;;;1.60;;
59974;SDS011;62136;-35.664;-63.766;2023-10-13T03:10:08;2.38;;;1.85;;
59974;SDS011;62136;-35.664;-63.766;2023-10-13T03:12:36;4.55;;;1.80;;
59974;SDS011;62136;-35.664;-63.766;2023-10-13T03:17:29;2.42;;;1.90;;
59974;SDS011;62136;-35.664;-63.766;2023-10-13T03:19:59;2.85;;;1.48;;
59974;SDS011;62136;-35.664;-63.766;2023-10-13T03:22:26;2.42;;;1.80;;
59974;SDS011;62136;-35.664;-63.766;2023-10-13T03:24:57;3.90;;;1.77;;
59974;SDS011;62136;-35.664;-63.766;2023-10-13T03:27:38;2.22;;;1.60;;
59974;SDS011;62136;-35.664;-63.766;2023-10-13T03:30:14;4.50;;;1.90;;
59974;SDS011;62136;-35.664;-63.766;2023-10-13T03:32:42;1.80;;;1.67;;
59974;SDS011;62136;-35.664;-63.766;2023-10-13T03:35:11;2.47;;;1.42;;
59974;SDS011;62136;-35.664;-63.766;2023-10-13T03:37:51;2.10;;;1.55;;
59974;SDS011;62136;-35.664;-63.766;2023-10-13T03:40:18;3.50;;;1.75;;
59974;SDS011;62136;-35.664;-63.766;2023-10-13T03:42:46;3.33;;;1.67;;
59974;SDS011;62136;-35.664;-63.766;2023-10-13T03:45:30;2.40;;;1.38;;
59974;SDS011;62136;-35.664;-63.766;2023-10-13T03:48:25;3.05;;;1.50;;
59974;SDS011;62136;-35.664;-63.766;2023-10-13T03:51:00;3.45;;;1.40;;
59974;SDS011;62136;-35.664;-63.766;2023-10-13T03:53:40;3.38;;;1.70;;
59974;SDS011;62136;-35.664;-63.766;2023-10-13T03:56:20;3.88;;;1.45;;
59974;SDS011;62136;-35.664;-63.766;2023-10-13T03:59:07;2.25;;;1.42;;
59974;SDS011;62136;-35.664;-63.766;2023-10-13T04:01:43;1.83;;;1.50;;
59974;SDS011;62136;-35.664;-63.766;2023-10-13T04:04:13;1.95;;;1.70;;
59974;SDS011;62136;-35.664;-63.766;2023-10-13T04:06:55;2.30;;;1.50;;
59974;SDS011;62136;-35.664;-63.766;2023-10-13T04:09:44;3.10;;;2.05;;
59974;SDS011;62136;-35.664;-63.766;2023-10-13T04:12:14;3.03;;;1.50;;
59974;SDS011;62136;-35.664;-63.766;2023-10-13T04:14:47;2.22;;;1.35;;
59974;SDS011;62136;-35.664;-63.766;2023-10-13T04:17:23;2.63;;;1.60;;
59974;SDS011;62136;-35.664;-63.766;2023-10-13T04:19:58;1.85;;;1.45;;
59974;SDS011;62136;-35.664;-63.766;2023-10-13T04:22:32;2.63;;;1.40;;
59974;SDS011;62136;-35.664;-63.766;2023-10-13T04:25:13;3.50;;;1.60;;
59974;SDS011;62136;-35.664;-63.766;2023-10-13T04:28:13;1.20;;;1.10;;
59974;SDS011;62136;-35.664;-63.766;2023-10-13T04:30:59;2.58;;;1.40;;
59974;SDS011;62136;-35.664;-63.766;2023-10-13T04:33:37;2.50;;;1.50;;
59974;SDS011;62136;-35.664;-63.766;2023-10-13T04:36:18;3.40;;;1.55;;
59974;SDS011;62136;-35.664;-63.766;2023-10-13T04:39:02;3.20;;;1.50;;
59974;SDS011;62136;-35.664;-63.766;2023-10-13T04:44:17;2.22;;;1.25;;
59974;SDS011;62136;-35.664;-63.766;2023-10-13T04:47:03;3.40;;;1.20;;
59974;SDS011;62136;-35.664;-63.766;2023-10-13T04:49:31;3.97;;;1.30;;
59974;SDS011;62136;-35.664;-63.766;2023-10-13T04:52:15;2.35;;;1.60;;
59974;SDS011;62136;-35.664;-63.766;2023-10-13T04:55:01;1.90;;;1.30;;
59974;SDS011;62136;-35.664;-63.766;2023-10-13T04:57:58;2.30;;;1.30;;
59974;SDS011;62136;-35.664;-63.766;2023-10-13T05:00:53;3.67;;;1.38;;
59974;SDS011;62136;-35.664;-63.766;2023-10-13T05:03:38;4.10;;;1.50;;
59974;SDS011;62136;-35.664;-63.766;2023-10-13T05:06:23;1.30;;;1.20;;
59974;SDS011;62136;-35.664;-63.766;2023-10-13T05:09:08;1.63;;;1.42;;
59974;SDS011;62136;-35.664;-63.766;2023-10-13T05:11:53;2.40;;;1.20;;
59974;SDS011;62136;-35.664;-63.766;2023-10-13T05:14:38;1.70;;;1.48;;
59974;SDS011;62136;-35.664;-63.766;2023-10-13T05:17:24;2.70;;;1.60;;
59974;SDS011;62136;-35.664;-63.766;2023-10-13T05:20:09;1.67;;;1.25;;
59974;SDS011;62136;-35.664;-63.766;2023-10-13T05:22:55;1.75;;;1.38;;
59974;SDS011;62136;-35.664;-63.766;2023-10-13T05:25:39;2.72;;;1.38;;
59974;SDS011;62136;-35.664;-63.766;2023-10-13T05:28:25;2.45;;;1.35;;
59974;SDS011;62136;-35.664;-63.766;2023-10-13T05:31:09;1.23;;;1.13;;
59974;SDS011;62136;-35.664;-63.766;2023-10-13T05:33:55;1.80;;;1.20;;
59974;SDS011;62136;-35.664;-63.766;2023-10-13T05:36:40;2.25;;;1.20;;
59974;SDS011;62136;-35.664;-63.766;2023-10-13T05:39:25;2.25;;;1.20;;
59974;SDS011;62136;-35.664;-63.766;2023-10-13T05:42:10;2.20;;;1.10;;
59974;SDS011;62136;-35.664;-63.766;2023-10-13T05:44:55;3.17;;;1.30;;
59974;SDS011;62136;-35.664;-63.766;2023-10-13T05:47:42;3.15;;;1.23;;
59974;SDS011;62136;-35.664;-63.766;2023-10-13T05:50:12;2.28;;;1.13;;
59974;SDS011;62136;-35.664;-63.766;2023-10-13T05:52:49;1.80;;;1.30;;
59974;SDS011;62136;-35.664;-63.766;2023-10-13T05:55:24;1.30;;;1.17;;
59974;SDS011;62136;-35.664;-63.766;2023-10-13T05:58:14;2.58;;;1.20;;
59974;SDS011;62136;-35.664;-63.766;2023-10-13T06:01:00;1.88;;;1.42;;
59974;SDS011;62136;-35.664;-63.766;2023-10-13T06:03:45;3.42;;;1.35;;
59974;SDS011;62136;-35.664;-63.766;2023-10-13T06:06:30;2.70;;;1.17;;
59974;SDS011;62136;-35.664;-63.766;2023-10-13T06:09:15;1.63;;;1.17;;
59974;SDS011;62136;-35.664;-63.766;2023-10-13T06:12:00;2.75;;;1.27;;
59974;SDS011;62136;-35.664;-63.766;2023-10-13T06:14:46;1.60;;;1.00;;
59974;SDS011;62136;-35.664;-63.766;2023-10-13T06:17:31;1.80;;;1.10;;
59974;SDS011;62136;-35.664;-63.766;2023-10-13T06:20:16;2.42;;;1.13;;
59974;SDS011;62136;-35.664;-63.766;2023-10-13T06:23:01;1.70;;;1.13;;
59974;SDS011;62136;-35.664;-63.766;2023-10-13T06:25:53;2.50;;;1.10;;
59974;SDS011;62136;-35.664;-63.766;2023-10-13T06:28:38;2.15;;;1.33;;
59974;SDS011;62136;-35.664;-63.766;2023-10-13T06:31:09;1.65;;;1.10;;
59974;SDS011;62136;-35.664;-63.766;2023-10-13T06:33:55;1.90;;;1.00;;
59974;SDS011;62136;-35.664;-63.766;2023-10-13T06:36:22;3.50;;;1.13;;
59974;SDS011;62136;-35.664;-63.766;2023-10-13T06:38:49;2.25;;;1.10;;
59974;SDS011;62136;-35.664;-63.766;2023-10-13T06:41:42;2.35;;;1.10;;
59974;SDS011;62136;-35.664;-63.766;2023-10-13T06:44:09;3.92;;;1.20;;
59974;SDS011;62136;-35.664;-63.766;2023-10-13T06:46:40;4.00;;;1.30;;
59974;SDS011;62136;-35.664;-63.766;2023-10-13T06:49:09;2.08;;;1.42;;
59974;SDS011;62136;-35.664;-63.766;2023-10-13T06:51:38;1.08;;;1.00;;
59974;SDS011;62136;-35.664;-63.766;2023-10-13T06:54:05;1.48;;;0.90;;
59974;SDS011;62136;-35.664;-63.766;2023-10-13T06:56:44;1.75;;;1.10;;
59974;SDS011;62136;-35.664;-63.766;2023-10-13T06:59:12;1.90;;;1.20;;
59974;SDS011;62136;-35.664;-63.766;2023-10-13T07:01:39;1.75;;;1.10;;
59974;SDS011;62136;-35.664;-63.766;2023-10-13T07:04:08;1.20;;;0.80;;
59974;SDS011;62136;-35.664;-63.766;2023-10-13T07:06:42;1.30;;;1.00;;
59974;SDS011;62136;-35.664;-63.766;2023-10-13T07:12:04;2.10;;;1.20;;
59974;SDS011;62136;-35.664;-63.766;2023-10-13T07:15:04;1.25;;;0.82;;
59974;SDS011;62136;-35.664;-63.766;2023-10-13T07:17:51;1.27;;;0.80;;
59974;SDS011;62136;-35.664;-63.766;2023-10-13T07:20:25;1.95;;;1.08;;
59974;SDS011;62136;-35.664;-63.766;2023-10-13T07:22:54;1.58;;;1.00;;
59974;SDS011;62136;-35.664;-63.766;2023-10-13T07:25:34;1.30;;;0.90;;
59974;SDS011;62136;-35.664;-63.766;2023-10-13T07:28:03;1.20;;;1.08;;
59974;SDS011;62136;-35.664;-63.766;2023-10-13T07:30:33;2.97;;;1.20;;
59974;SDS011;62136;-35.664;-63.766;2023-10-13T07:33:28;1.20;;;0.80;;
59974;SDS011;62136;-35.664;-63.766;2023-10-13T07:36:13;2.67;;;1.25;;
59974;SDS011;62136;-35.664;-63.766;2023-10-13T07:38:53;1.27;;;0.82;;
59974;SDS011;62136;-35.664;-63.766;2023-10-13T07:41:55;1.10;;;1.00;;
59974;SDS011;62136;-35.664;-63.766;2023-10-13T07:44:54;1.40;;;1.00;;
59974;SDS011;62136;-35.664;-63.766;2023-10-13T07:47:21;1.63;;;0.90;;
59974;SDS011;62136;-35.664;-63.766;2023-10-13T07:49:50;2.50;;;0.95;;
59974;SDS011;62136;-35.664;-63.766;2023-10-13T07:52:17;1.98;;;1.00;;
59974;SDS011;62136;-35.664;-63.766;2023-10-13T07:54:47;2.58;;;1.08;;
59974;SDS011;62136;-35.664;-63.766;2023-10-13T07:57:35;2.42;;;0.95;;
59974;SDS011;62136;-35.664;-63.766;2023-10-13T08:00:22;1.05;;;0.80;;
59974;SDS011;62136;-35.664;-63.766;2023-10-13T08:03:08;1.35;;;1.00;;
59974;SDS011;62136;-35.664;-63.766;2023-10-13T08:05:52;1.20;;;0.82;;
59974;SDS011;62136;-35.664;-63.766;2023-10-13T08:08:33;2.17;;;0.82;;
59974;SDS011;62136;-35.664;-63.766;2023-10-13T08:11:09;1.35;;;0.77;;
59974;SDS011;62136;-35.664;-63.766;2023-10-13T08:14:06;0.90;;;0.85;;
59974;SDS011;62136;-35.664;-63.766;2023-10-13T08:16:59;3.78;;;0.90;;
59974;SDS011;62136;-35.664;-63.766;2023-10-13T08:19:26;1.75;;;0.95;;
59974;SDS011;62136;-35.664;-63.766;2023-10-13T08:22:14;1.52;;;0.85;;
59974;SDS011;62136;-35.664;-63.766;2023-10-13T08:24:44;3.10;;;0.85;;
59974;SDS011;62136;-35.664;-63.766;2023-10-13T08:27:13;1.52;;;0.90;;
59974;SDS011;62136;-35.664;-63.766;2023-10-13T08:29:45;1.20;;;0.85;;
59974;SDS011;62136;-35.664;-63.766;2023-10-13T08:32:22;2.03;;;1.30;;
59974;SDS011;62136;-35.664;-63.766;2023-10-13T08:34:57;1.25;;;0.65;;
59974;SDS011;62136;-35.664;-63.766;2023-10-13T08:37:31;2.45;;;1.02;;
59974;SDS011;62136;-35.664;-63.766;2023-10-13T08:40:11;0.73;;;0.70;;
59974;SDS011;62136;-35.664;-63.766;2023-10-13T08:42:57;1.90;;;0.82;;
59974;SDS011;62136;-35.664;-63.766;2023-10-13T08:45:29;1.10;;;0.68;;
59974;SDS011;62136;-35.664;-63.766;2023-10-13T08:47:58;1.38;;;0.60;;
59974;SDS011;62136;-35.664;-63.766;2023-10-13T08:50:38;1.17;;;0.60;;
59974;SDS011;62136;-35.664;-63.766;2023-10-13T08:53:19;1.25;;;0.88;;
59974;SDS011;62136;-35.664;-63.766;2023-10-13T08:56:00;1.00;;;0.75;;
59974;SDS011;62136;-35.664;-63.766;2023-10-13T08:58:36;2.78;;;1.05;;
59974;SDS011;62136;-35.664;-63.766;2023-10-13T09:01:23;0.60;;;0.60;;
59974;SDS011;62136;-35.664;-63.766;2023-10-13T09:03:57;0.82;;;0.70;;
59974;SDS011;62136;-35.664;-63.766;2023-10-13T09:14:55;1.85;;;0.70;;
59974;SDS011;62136;-35.664;-63.766;2023-10-13T09:17:24;1.83;;;0.70;;
59974;SDS011;62136;-35.664;-63.766;2023-10-13T09:20:03;1.33;;;0.65;;
59974;SDS011;62136;-35.664;-63.766;2023-10-13T09:22:50;1.00;;;0.90;;
59974;SDS011;62136;-35.664;-63.766;2023-10-13T09:25:27;0.98;;;0.80;;
59974;SDS011;62136;-35.664;-63.766;2023-10-13T09:30:45;1.70;;;0.77;;
59974;SDS011;62136;-35.664;-63.766;2023-10-13T09:33:13;1.40;;;0.93;;
59974;SDS011;62136;-35.664;-63.766;2023-10-13T09:35:54;1.00;;;0.70;;
59974;SDS011;62136;-35.664;-63.766;2023-10-13T09:38:25;1.42;;;0.77;;
59974;SDS011;62136;-35.664;-63.766;2023-10-13T09:40:58;1.10;;;0.65;;
59974;SDS011;62136;-35.664;-63.766;2023-10-13T09:43:43;1.63;;;0.80;;
59974;SDS011;62136;-35.664;-63.766;2023-10-13T09:46:13;1.38;;;0.70;;
59974;SDS011;62136;-35.664;-63.766;2023-10-13T09:48:49;1.42;;;0.60;;
59974;SDS011;62136;-35.664;-63.766;2023-10-13T09:51:30;1.48;;;0.73;;
59974;SDS011;62136;-35.664;-63.766;2023-10-13T09:54:10;1.63;;;0.70;;
59974;SDS011;62136;-35.664;-63.766;2023-10-13T09:59:32;2.70;;;1.10;;
59974;SDS011;62136;-35.664;-63.766;2023-10-13T10:02:06;1.33;;;0.60;;
59974;SDS011;62136;-35.664;-63.766;2023-10-13T10:04:38;2.95;;;0.98;;
59974;SDS011;62136;-35.664;-63.766;2023-10-13T10:07:26;1.55;;;0.88;;
59974;SDS011;62136;-35.664;-63.766;2023-10-13T10:09:58;0.77;;;0.77;;
59974;SDS011;62136;-35.664;-63.766;2023-10-13T10:17:59;3.08;;;0.70;;
59974;SDS011;62136;-35.664;-63.766;2023-10-13T10:23:26;1.13;;;0.60;;
59974;SDS011;62136;-35.664;-63.766;2023-10-13T10:26:13;1.50;;;0.60;;
59974;SDS011;62136;-35.664;-63.766;2023-10-13T10:28:45;1.30;;;0.70;;
59974;SDS011;62136;-35.664;-63.766;2023-10-13T10:31:13;0.63;;;0.60;;
59974;SDS011;62136;-35.664;-63.766;2023-10-13T10:33:43;0.65;;;0.65;;
59974;SDS011;62136;-35.664;-63.766;2023-10-13T10:36:11;1.33;;;0.88;;
59974;SDS011;62136;-35.664;-63.766;2023-10-13T10:38:51;2.08;;;0.65;;
59974;SDS011;62136;-35.664;-63.766;2023-10-13T10:41:25;1.52;;;0.70;;
59974;SDS011;62136;-35.664;-63.766;2023-10-13T10:44:13;1.67;;;0.60;;
59974;SDS011;62136;-35.664;-63.766;2023-10-13T10:46:42;3.22;;;0.70;;
59974;SDS011;62136;-35.664;-63.766;2023-10-13T10:49:28;1.60;;;0.70;;
59974;SDS011;62136;-35.664;-63.766;2023-10-13T10:52:03;0.93;;;0.60;;
59974;SDS011;62136;-35.664;-63.766;2023-10-13T10:54:40;1.23;;;0.65;;
59974;SDS011;62136;-35.664;-63.766;2023-10-13T10:57:09;1.17;;;0.85;;
59974;SDS011;62136;-35.664;-63.766;2023-10-13T10:59:38;1.35;;;0.65;;
59974;SDS011;62136;-35.664;-63.766;2023-10-13T11:02:06;2.35;;;0.70;;
59974;SDS011;62136;-35.664;-63.766;2023-10-13T11:04:34;2.80;;;0.70;;
59974;SDS011;62136;-35.664;-63.766;2023-10-13T11:07:25;1.23;;;0.70;;
59974;SDS011;62136;-35.664;-63.766;2023-10-13T11:09:53;1.13;;;1.00;;
59974;SDS011;62136;-35.664;-63.766;2023-10-13T11:12:32;2.28;;;0.80;;
59974;SDS011;62136;-35.664;-63.766;2023-10-13T11:15:06;1.52;;;0.90;;
59974;SDS011;62136;-35.664;-63.766;2023-10-13T11:18:00;1.70;;;0.70;;
59974;SDS011;62136;-35.664;-63.766;2023-10-13T11:20:30;1.00;;;0.82;;
59974;SDS011;62136;-35.664;-63.766;2023-10-13T11:23:12;1.05;;;0.52;;
59974;SDS011;62136;-35.664;-63.766;2023-10-13T11:25:40;1.83;;;0.77;;
59974;SDS011;62136;-35.664;-63.766;2023-10-13T11:28:11;0.95;;;0.65;;
59974;SDS011;62136;-35.664;-63.766;2023-10-13T11:30:48;0.73;;;0.70;;
59974;SDS011;62136;-35.664;-63.766;2023-10-13T11:33:16;1.02;;;0.70;;
59974;SDS011;62136;-35.664;-63.766;2023-10-13T11:35:46;1.38;;;0.63;;
59974;SDS011;62136;-35.664;-63.766;2023-10-13T11:38:20;2.15;;;0.70;;
59974;SDS011;62136;-35.664;-63.766;2023-10-13T11:40:52;1.75;;;0.70;;
59974;SDS011;62136;-35.664;-63.766;2023-10-13T11:43:31;1.98;;;0.70;;
59974;SDS011;62136;-35.664;-63.766;2023-10-13T11:46:08;0.98;;;0.75;;
59974;SDS011;62136;-35.664;-63.766;2023-10-13T11:48:37;1.58;;;0.80;;
59974;SDS011;62136;-35.664;-63.766;2023-10-13T11:51:14;1.45;;;0.90;;
59974;SDS011;62136;-35.664;-63.766;2023-10-13T11:53:57;0.77;;;0.60;;
59974;SDS011;62136;-35.664;-63.766;2023-10-13T11:56:25;0.80;;;0.60;;
59974;SDS011;62136;-35.664;-63.766;2023-10-13T11:58:52;3.25;;;0.60;;
59974;SDS011;62136;-35.664;-63.766;2023-10-13T12:01:19;1.30;;;0.70;;
59974;SDS011;62136;-35.664;-63.766;2023-10-13T12:03:47;0.88;;;0.52;;
59974;SDS011;62136;-35.664;-63.766;2023-10-13T12:06:33;2.30;;;0.65;;
59974;SDS011;62136;-35.664;-63.766;2023-10-13T12:09:01;2.00;;;0.57;;
59974;SDS011;62136;-35.664;-63.766;2023-10-13T12:11:45;1.30;;;0.68;;
59974;SDS011;62136;-35.664;-63.766;2023-10-13T12:14:16;0.80;;;0.70;;
59974;SDS011;62136;-35.664;-63.766;2023-10-13T12:17:16;1.02;;;0.60;;
59974;SDS011;62136;-35.664;-63.766;2023-10-13T12:19:53;1.35;;;0.60;;
59974;SDS011;62136;-35.664;-63.766;2023-10-13T12:22:22;2.53;;;0.70;;
59974;SDS011;62136;-35.664;-63.766;2023-10-13T12:24:57;1.98;;;0.70;;
59974;SDS011;62136;-35.664;-63.766;2023-10-13T12:27:30;1.63;;;0.80;;
59974;SDS011;62136;-35.664;-63.766;2023-10-13T12:30:01;1.55;;;0.63;;
59974;SDS011;62136;-35.664;-63.766;2023-10-13T12:32:39;0.65;;;0.55;;
59974;SDS011;62136;-35.664;-63.766;2023-10-13T12:35:15;0.73;;;0.63;;
59974;SDS011;62136;-35.664;-63.766;2023-10-13T12:37:52;0.52;;;0.45;;
59974;SDS011;62136;-35.664;-63.766;2023-10-13T12:40:30;0.75;;;0.60;;
59974;SDS011;62136;-35.664;-63.766;2023-10-13T12:43:15;0.90;;;0.50;;
59974;SDS011;62136;-35.664;-63.766;2023-10-13T12:46:00;1.00;;;0.55;;
59974;SDS011;62136;-35.664;-63.766;2023-10-13T12:48:45;1.25;;;0.80;;
59974;SDS011;62136;-35.664;-63.766;2023-10-13T12:51:24;1.17;;;0.60;;
59974;SDS011;62136;-35.664;-63.766;2023-10-13T12:53:54;0.63;;;0.60;;
59974;SDS011;62136;-35.664;-63.766;2023-10-13T12:56:30;1.65;;;0.75;;
59974;SDS011;62136;-35.664;-63.766;2023-10-13T12:58:58;1.40;;;0.70;;
59974;SDS011;62136;-35.664;-63.766;2023-10-13T13:01:25;4.47;;;0.90;;
59974;SDS011;62136;-35.664;-63.766;2023-10-13T13:03:58;1.50;;;0.50;;
59974;SDS011;62136;-35.664;-63.766;2023-10-13T13:06:32;0.60;;;0.60;;
59974;SDS011;62136;-35.664;-63.766;2023-10-13T13:08:59;1.38;;;0.60;;
59974;SDS011;62136;-35.664;-63.766;2023-10-13T13:11:26;1.15;;;0.60;;
59974;SDS011;62136;-35.664;-63.766;2023-10-13T13:13:57;0.93;;;0.50;;
59974;SDS011;62136;-35.664;-63.766;2023-10-13T13:16:24;1.00;;;0.50;;
59974;SDS011;62136;-35.664;-63.766;2023-10-13T13:18:55;1.95;;;0.52;;
59974;SDS011;62136;-35.664;-63.766;2023-10-13T13:21:23;1.55;;;0.75;;
59974;SDS011;62136;-35.664;-63.766;2023-10-13T13:23:50;2.00;;;0.75;;
59974;SDS011;62136;-35.664;-63.766;2023-10-13T13:26:20;0.98;;;0.68;;
59974;SDS011;62136;-35.664;-63.766;2023-10-13T13:28:51;1.15;;;0.73;;
59974;SDS011;62136;-35.664;-63.766;2023-10-13T13:31:18;1.55;;;0.65;;
59974;SDS011;62136;-35.664;-63.766;2023-10-13T13:33:51;0.75;;;0.60;;
59974;SDS011;62136;-35.664;-63.766;2023-10-13T13:36:18;0.60;;;0.60;;
59974;SDS011;62136;-35.664;-63.766;2023-10-13T13:38:47;1.60;;;0.55;;
59974;SDS011;62136;-35.664;-63.766;2023-10-13T13:41:16;2.65;;;0.60;;
59974;SDS011;62136;-35.664;-63.766;2023-10-13T13:46:26;1.25;;;0.60;;
59974;SDS011;62136;-35.664;-63.766;2023-10-13T13:51:28;0.85;;;0.60;;
59974;SDS011;62136;-35.664;-63.766;2023-10-13T13:53:57;1.67;;;0.80;;
59974;SDS011;62136;-35.664;-63.766;2023-10-13T13:56:25;0.70;;;0.60;;
59974;SDS011;62136;-35.664;-63.766;2023-10-13T13:58:56;0.77;;;0.70;;
59974;SDS011;62136;-35.664;-63.766;2023-10-13T14:01:32;0.70;;;0.60;;
59974;SDS011;62136;-35.664;-63.766;2023-10-13T14:04:02;1.38;;;0.60;;
59974;SDS011;62136;-35.664;-63.766;2023-10-13T14:06:32;1.63;;;0.65;;
59974;SDS011;62136;-35.664;-63.766;2023-10-13T14:09:00;1.20;;;0.70;;
59974;SDS011;62136;-35.664;-63.766;2023-10-13T14:12:02;1.52;;;0.63;;
59974;SDS011;62136;-35.664;-63.766;2023-10-13T14:14:48;3.60;;;0.70;;
59974;SDS011;62136;-35.664;-63.766;2023-10-13T14:17:26;0.73;;;0.52;;
59974;SDS011;62136;-35.664;-63.766;2023-10-13T14:20:01;4.97;;;0.88;;
59974;SDS011;62136;-35.664;-63.766;2023-10-13T14:22:40;0.73;;;0.60;;
59974;SDS011;62136;-35.664;-63.766;2023-10-13T14:25:07;1.35;;;0.70;;
59974;SDS011;62136;-35.664;-63.766;2023-10-13T14:27:42;1.20;;;0.68;;
59974;SDS011;62136;-35.664;-63.766;2023-10-13T14:30:10;1.20;;;0.70;;
59974;SDS011;62136;-35.664;-63.766;2023-10-13T14:32:45;1.98;;;0.80;;
59974;SDS011;62136;-35.664;-63.766;2023-10-13T14:35:12;3.13;;;0.80;;
59974;SDS011;62136;-35.664;-63.766;2023-10-13T14:37:42;1.50;;;0.65;;
59974;SDS011;62136;-35.664;-63.766;2023-10-13T14:40:09;2.47;;;0.80;;
59974;SDS011;62136;-35.664;-63.766;2023-10-13T14:42:47;0.80;;;0.73;;
59974;SDS011;62136;-35.664;-63.766;2023-10-13T14:45:14;2.42;;;0.90;;
59974;SDS011;62136;-35.664;-63.766;2023-10-13T14:47:45;1.08;;;0.50;;
59974;SDS011;62136;-35.664;-63.766;2023-10-13T14:50:12;1.02;;;0.70;;
59974;SDS011;62136;-35.664;-63.766;2023-10-13T14:52:45;1.08;;;0.52;;
59974;SDS011;62136;-35.664;-63.766;2023-10-13T14:55:13;1.35;;;0.60;;
59974;SDS011;62136;-35.664;-63.766;2023-10-13T14:58:03;1.17;;;0.55;;
59974;SDS011;62136;-35.664;-63.766;2023-10-13T15:00:32;0.50;;;0.50;;
59974;SDS011;62136;-35.664;-63.766;2023-10-13T15:03:00;1.10;;;0.63;;
59974;SDS011;62136;-35.664;-63.766;2023-10-13T15:05:27;1.20;;;0.73;;
59974;SDS011;62136;-35.664;-63.766;2023-10-13T15:07:55;3.20;;;0.68;;
59974;SDS011;62136;-35.664;-63.766;2023-10-13T15:10:22;2.20;;;0.70;;
59974;SDS011;62136;-35.664;-63.766;2023-10-13T15:12:51;1.50;;;0.90;;
59974;SDS011;62136;-35.664;-63.766;2023-10-13T15:15:18;1.42;;;0.65;;
59974;SDS011;62136;-35.664;-63.766;2023-10-13T15:17:45;0.85;;;0.47;;
59974;SDS011;62136;-35.664;-63.766;2023-10-13T15:20:13;1.13;;;0.50;;
59974;SDS011;62136;-35.664;-63.766;2023-10-13T15:22:43;2.20;;;0.70;;
59974;SDS011;62136;-35.664;-63.766;2023-10-13T15:25:14;2.58;;;0.60;;
59974;SDS011;62136;-35.664;-63.766;2023-10-13T15:28:03;2.28;;;0.70;;
59974;SDS011;62136;-35.664;-63.766;2023-10-13T15:30:35;0.60;;;0.40;;
59974;SDS011;62136;-35.664;-63.766;2023-10-13T15:33:18;2.70;;;0.70;;
59974;SDS011;62136;-35.664;-63.766;2023-10-13T15:35:45;3.65;;;0.80;;
59974;SDS011;62136;-35.664;-63.766;2023-10-13T15:38:12;1.23;;;0.70;;